Tiempo atmosférico en la estación meteorológica de Cartaya, Huelva (15 m.)



Fecha
DESCASC
Temp. máxima en grados centígrados (hora)
DESCASC
Temp. mínima en grados centígrados (hora)
DESCASC
Temp. media en grados centígrados
DESCASC
Racha de viento máxima en m/sg (hora)
DESCASC
Velocidad máxima media en intervalos de 10 minutos(hora)
DESCASC
Precipitaciones diarias en mm
DESCASC
Precipitaciones de 00:00 a 06:00 en mm
DESCASC
Precipitaciones de 06:00 a 12:00 en mm
DESCASC
Precipitaciones de 12:00 a 18:00 en mm
DESCASC
Precipitaciones de 18:00 a 24:00 en mm
DESCASC
18-11-2019 17.9 (15:10) 6.8 (23:59) 12.3 10.83 (02:50) 5.83 (00:50) 0.2 0.2 0 0 0
17-11-2019 16.9 (14:30) 4.1 (03:00) 10.5 9.17 (17:50) 5.28 (23:59) 1 0 1 0 0
16-11-2019 16.9 (15:50) 3.3 (08:30) 10.1 7.5 (10:10) 4.72 (16:20) 0 0 0 0 0
15-11-2019 15.4 (16:00) 7.2 (08:30) 11.3 11.94 (14:20) 6.11 (12:20) 0.2 0 0.2 0 0
14-11-2019 16.4 (11:30) 9.3 (00:00) 12.8 14.17 (11:50) 6.67 (11:50) 1 0 0 1 0
13-11-2019 23.6 (14:50) 12.5 (00:00) 18.1 10.83 (14:20) 4.72 (13:10) 0 0 0 0 0
12-11-2019 20.9 (15:50) 7.5 (00:00) 14.2 8.89 (14:10) 5 (02:10) 0 0 0 0 0
11-11-2019 20.9 (14:30) 12.9 (03:00) 16.9 10 (14:40) 4.17 (14:50) 1.4 1.2 0.2 0 0
10-11-2019 19.3 (14:30) 12.3 (00:00) 15.8 14.17 (14:20) 6.94 (14:20) 0 0 0 0 0
09-11-2019 20.5 (15:40) 5.7 (00:00) 13.1 8.61 (15:50) 5.28 (16:30) 0 0 0 0 0
08-11-2019 18.9 (14:50) 6.4 (00:00) 12.6 11.11 (14:50) 4.72 (13:00) 0 0 0 0 0
07-11-2019 20.3 (16:00) 9.4 (00:00) 14.8 13.61 (12:30) 6.39 (12:30) 1.4 0 1.4 0 0
06-11-2019 21.4 (15:30) 6 (00:00) 13.7 7.78 (13:40) 4.44 (14:30) 0 0 0 0 0
05-11-2019 23.2 (15:40) 9.3 (00:00) 16.3 9.72 (14:10) 5.56 (13:30) 0.2 0.2 0 0 0
04-11-2019 19.7 (15:10) 16 (00:00) 17.9 11.11 (17:10) 6.67 (17:20) 0 0 0 0 0
03-11-2019 24.4 (15:50) 16.9 (00:00) 20.6 9.17 (12:30) 5 (12:40) 0.2 0.2 0 0 0
02-11-2019 21.7 (13:30) 18 (00:00) 19.9 11.39 (16:00) 6.94 (16:10) 0.6 0.4 0 0.2 0
01-11-2019 23.8 (11:30) 16.7 (00:00) 20.3 7.5 (15:00) 5 (15:00) 0.4 0 0 0 0.4
31-10-2019 23.2 (12:50) 15.5 (05:40) 19.4 7.22 (20:00) 4.72 (14:40) 0 0 0 0 0
30-10-2019 22 (14:00) 15.2 (00:00) 18.6 5.83 (20:10) 3.33 (15:10) 0 0 0 0 0
29-10-2019 21.7 (15:00) 15.7 (00:00) 18.7 6.67 (15:50) 3.89 (16:00) 0 0 0 0 0
28-10-2019 20.9 (12:50) 17.6 (00:00) 19.3 6.67 (13:10) 3.61 (13:10) 0.2 0.2 0 0 0
27-10-2019 22 (14:10) 9.6 (00:00) 15.8 6.94 (14:40) 4.44 (13:40) 0 0 0 0 0
26-10-2019 24.1 (17:00) 9.3 (00:00) 16.7 5.56 (13:40) 3.33 (13:40) 0 0 0 0 0
25-10-2019 23.2 (17:10) 8.1 (00:00) 15.7 5.28 (14:30) 3.06 (14:20) 0 0 0 0 0
24-10-2019 19.4 (15:50) 8.1 (00:00) 13.8 6.39 (14:40) 4.17 (14:40) 0 0 0 0 0
23-10-2019 -- (--) -- (--) -- -- (--) -- (--) -- -- -- 0.2 0
22-10-2019 -- (--) -- (--) -- -- (--) -- (--) -- 0 0 -- --

Gráficas

Temp. máximas Temp. mínimas Temp. medias Precipitaciones Rachas de viento máximas Velocidades máximas media en intervalos de 10 minutos

Datos horarios

Fecha y hora oficial Temperatura (ºC) Velocidad del viento (km/h) Dirección del viento Racha (km/h) Dirección de racha Precipitación (mm) Presión (hPa) Tendencia (hPa) Humedad (%)
2019-11-20 23:00:00 10.4 2 Noroeste 4 Oeste 0 -- -- 96
2019-11-20 22:00:00 12.2 0 Calma 3 Sudoeste 0 -- -- 97
2019-11-20 21:00:00 12.8 0 Calma 17 Oeste 0 -- -- 95
2019-11-20 20:00:00 13.9 13 Oeste 30 Oeste 0.4 -- -- 90
2019-11-20 19:00:00 14 9 Oeste 17 Oeste 0 -- -- 87
2019-11-20 18:00:00 14 5 Sudeste 13 Sudeste 0 -- -- 91
2019-11-20 17:00:00 15.3 8 Sur 16 Sudeste 0 -- -- 85
2019-11-20 16:00:00 16.4 8 Sur 14 Sudeste 0 -- -- 82
2019-11-20 15:00:00 16.6 5 Noroeste 13 Noroeste 0 -- -- 77
2019-11-20 14:00:00 14.7 6 Norte 17 Nordeste 0 -- -- 90
2019-11-20 13:00:00 14.8 5 Este 12 Este 0 -- -- 96
2019-11-20 12:00:00 11.2 6 Norte 18 Nordeste 6 -- -- 99
2019-11-20 11:00:00 10.5 9 Este 17 Este 5.6 -- -- 99
2019-11-20 10:00:00 10.1 8 Este 15 Este 1 -- -- 98
2019-11-20 09:00:00 10.4 6 Nordeste 22 Este 0 -- -- 98
2019-11-20 08:00:00 11.2 12 Este 28 Este 0.2 -- -- 98
2019-11-20 07:00:00 9.7 8 Este 14 Este 0.2 -- -- 99
2019-11-20 06:00:00 8.6 3 Nordeste 10 Nordeste 0.2 -- -- 96
2019-11-20 05:00:00 8.7 4 Nordeste 10 Este 0 -- -- 95
2019-11-20 04:00:00 8.4 5 Nordeste 9 Nordeste 0 -- -- 95
2019-11-20 03:00:00 7.9 5 Nordeste 7 Nordeste 0 -- -- 98
2019-11-20 02:00:00 7.4 4 Nordeste 8 Nordeste 0 -- -- 98
2019-11-20 01:00:00 7 4 Nordeste 7 Nordeste 0 -- -- 97
2019-11-20 00:00:00 5.9 3 Nordeste 5 Norte 0 -- -- 94
2019-11-19 23:00:00 5.2 0 Calma 4 Norte 0 -- -- 95
2019-11-19 22:00:00 5.7 2 Nordeste 3 Norte 0 -- -- 93
2019-11-19 21:00:00 7.3 3 Oeste 6 Oeste 0 -- -- 90
2019-11-19 20:00:00 9.5 3 Oeste 9 Sudoeste 0 -- -- 87
2019-11-19 19:00:00 12.3 5 Sudoeste 12 Sudoeste 0 -- -- 83
2019-11-19 18:00:00 13.4 6 Sudoeste 13 Sudoeste 0 -- -- 76
2019-11-19 17:00:00 14.4 7 Sur 12 Sur 0 -- -- 70
2019-11-19 16:00:00 14.2 6 Sur 12 Sur 0 -- -- 69
2019-11-19 15:00:00 14.2 7 Sur 13 Sur 0 -- -- 66
2019-11-19 14:00:00 14.3 8 Sur 13 Sur 0 -- -- 64
2019-11-19 13:00:00 14.6 8 Sur 11 Sur 0 -- -- 60
2019-11-19 12:00:00 14.2 3 Sur 9 Sur 0 -- -- 60
2019-11-19 11:00:00 12.5 4 Nordeste 12 Norte 0 -- -- 65
2019-11-19 10:00:00 9.3 7 Norte 12 Norte 0 -- -- 83
2019-11-19 09:00:00 5.8 6 Nordeste 12 Nordeste 0 -- -- 98
2019-11-19 08:00:00 3.2 3 Norte 7 Norte 0 -- -- 96
2019-11-19 07:00:00 3.7 4 Este 9 Este 0 -- -- 97
2019-11-19 06:00:00 2.9 4 Norte 8 Norte 0 -- -- 94
2019-11-19 05:00:00 3.9 6 Norte 9 Norte 0 -- -- 95
2019-11-19 04:00:00 4.2 5 Norte 8 Norte 0 -- -- 93
2019-11-19 03:00:00 4.4 5 Noroeste 9 Noroeste 0 -- -- 93
2019-11-19 02:00:00 4 3 Norte 5 Norte 0 -- -- 91
2019-11-19 01:00:00 5 2 Norte 4 Norte 0 -- -- 89
2019-11-19 00:00:00 6.8 2 Nordeste 7 Noroeste 0 -- -- 84
2019-11-18 23:00:00 8.5 5 Norte 10 Noroeste 0 -- -- 79
2019-11-18 22:00:00 8.3 4 Noroeste 10 Norte 0 -- -- 77
2019-11-18 21:00:00 8.9 6 Noroeste 12 Noroeste 0 -- -- 75
2019-11-18 20:00:00 10.6 5 Norte 10 Norte 0 -- -- 66
2019-11-18 19:00:00 12.6 4 Norte 15 Norte 0 -- -- 59
2019-11-18 18:00:00 15.6 7 Noroeste 22 Noroeste 0 -- -- 49
2019-11-18 17:00:00 17.3 9 Noroeste 25 Noroeste 0 -- -- 45
2019-11-18 16:00:00 17.7 12 Norte 31 Noroeste 0 -- -- 45
2019-11-18 15:00:00 17.6 12 Norte 27 Noroeste 0 -- -- 47
2019-11-18 14:00:00 17.1 13 Noroeste 33 Noroeste 0 -- -- 48
2019-11-18 13:00:00 16.2 10 Norte 29 Norte 0 -- -- 51
2019-11-18 12:00:00 14.7 12 Norte 32 Norte 0 -- -- 57
2019-11-18 11:00:00 13.1 17 Norte 33 Noroeste 0 -- -- 68
2019-11-18 10:00:00 11.6 16 Noroeste 31 Norte 0 -- -- 77
2019-11-18 09:00:00 9.7 12 Noroeste 30 Noroeste 0 -- -- 85
2019-11-18 08:00:00 9.3 14 Noroeste 37 Noroeste 0 -- -- 87
2019-11-18 07:00:00 9.7 18 Noroeste 37 Norte 0 -- -- 83
2019-11-18 06:00:00 9.7 9 Noroeste 30 Noroeste 0 -- -- 82
2019-11-18 05:00:00 10.3 18 Noroeste 36 Oeste 0 -- -- 78
2019-11-18 04:00:00 11 16 Noroeste 37 Noroeste 0 -- -- 71
2019-11-18 03:00:00 12 15 Noroeste 39 Noroeste 0.2 -- -- 68
2019-11-18 02:00:00 13.3 10 Noroeste 37 Noroeste 0 -- -- 79
2019-11-18 01:00:00 14.8 21 Oeste 36 Sudoeste 0 -- -- 93
2019-11-18 00:00:00 14.6 19 Sudoeste 30 Sudoeste 0 -- -- 93
2019-11-17 23:00:00 14.5 14 Oeste 21 Sudoeste 0 -- -- 92
2019-11-17 22:00:00 14.5 13 Sudoeste 23 Oeste 0 -- -- 89
2019-11-17 21:00:00 14.6 12 Oeste 24 Oeste 0 -- -- 89
2019-11-17 20:00:00 14.6 15 Oeste 26 Oeste 0 -- -- 91
2019-11-17 19:00:00 15 9 Sudoeste 24 Oeste 0 -- -- 87
2019-11-17 18:00:00 15.7 15 Oeste 33 Oeste 0 -- -- 86
2019-11-17 17:00:00 16 14 Sudoeste 30 Sudoeste 0 -- -- 86
2019-11-17 16:00:00 16.3 17 Sudoeste 32 Oeste 0 -- -- 86
2019-11-17 15:00:00 16.8 17 Sudoeste 28 Sudoeste 0 -- -- 83
2019-11-17 14:00:00 16.6 14 Sudoeste 23 Sudoeste 0 -- -- 83
2019-11-17 13:00:00 15.4 12 Sudoeste 19 Sudoeste 0 -- -- 88
2019-11-17 12:00:00 14.5 10 Sudoeste 15 Sudoeste 0 -- -- 90
2019-11-17 11:00:00 12 2 Norte 6 Oeste 0.2 -- -- 99
2019-11-17 10:00:00 9.5 3 Norte 6 Este 0.2 -- -- 98
2019-11-17 09:00:00 8.5 2 Nordeste 7 Este 0.6 -- -- 97
2019-11-17 08:00:00 8.2 3 Nordeste 5 Nordeste 0 -- -- 96
2019-11-17 07:00:00 8.1 0 Calma 5 Norte 0 -- -- 91
2019-11-17 06:00:00 7.5 3 Norte 5 Norte 0 -- -- 84
2019-11-17 05:00:00 6.8 2 Norte 5 Norte 0 -- -- 85
2019-11-17 04:00:00 5.6 2 Noroeste 8 Noroeste 0 -- -- 87
2019-11-17 03:00:00 4.1 4 Noroeste 7 Noroeste 0 -- -- 88
2019-11-17 02:00:00 5.1 3 Noroeste 8 Oeste 0 -- -- 86
2019-11-17 01:00:00 6.4 5 Noroeste 14 Noroeste 0 -- -- 79
2019-11-17 00:00:00 7 6 Noroeste 13 Oeste 0 -- -- 75
2019-11-16 23:00:00 6.8 8 Noroeste 16 Noroeste 0 -- -- 72
2019-11-16 22:00:00 6.3 4 Noroeste 11 Noroeste 0 -- -- 71
2019-11-16 21:00:00 4.6 5 Noroeste 8 Norte 0 -- -- 80
2019-11-16 20:00:00 7.2 4 Noroeste 7 Noroeste 0 -- -- 77
2019-11-16 19:00:00 10.9 4 Oeste 14 Sudoeste 0 -- -- 74
2019-11-16 18:00:00 13.7 10 Sudoeste 21 Oeste 0 -- -- 63
2019-11-16 17:00:00 14.3 13 Sudoeste 25 Oeste 0 -- -- 59
2019-11-16 16:00:00 16.9 10 Oeste 25 Oeste 0 -- -- 48
2019-11-16 15:00:00 16.7 10 Oeste 25 Norte 0 -- -- 36
2019-11-16 14:00:00 15.7 10 Noroeste 23 Norte 0 -- -- 39
2019-11-16 13:00:00 14.9 9 Noroeste 21 Norte 0 -- -- 42
2019-11-16 12:00:00 12.6 10 Noroeste 24 Noroeste 0 -- -- 52
2019-11-16 11:00:00 10.3 10 Noroeste 27 Noroeste 0 -- -- 62
2019-11-16 10:00:00 7.6 8 Noroeste 19 Noroeste 0 -- -- 76
2019-11-16 09:00:00 4 7 Noroeste 15 Noroeste 0 -- -- 92
2019-11-16 08:00:00 3.8 4 Noroeste 15 Noroeste 0 -- -- 91
2019-11-16 07:00:00 3.9 6 Noroeste 15 Noroeste 0 -- -- 92
2019-11-16 06:00:00 3.7 5 Noroeste 13 Noroeste 0 -- -- 91
2019-11-16 05:00:00 5.1 6 Noroeste 18 Noroeste 0 -- -- 86
2019-11-16 04:00:00 5.5 7 Noroeste 18 Norte 0 -- -- 84
2019-11-16 03:00:00 6 8 Noroeste 19 Noroeste 0 -- -- 80
2019-11-16 02:00:00 6.2 7 Noroeste 14 Noroeste 0 -- -- 79
2019-11-16 01:00:00 7 6 Noroeste 19 Noroeste 0 -- -- 74
2019-11-16 00:00:00 7.6 10 Noroeste 21 Norte 0 -- -- 70
2019-11-15 23:00:00 8.2 6 Noroeste 19 Noroeste 0 -- -- 64
2019-11-15 22:00:00 9.2 9 Noroeste 19 Noroeste 0 -- -- 59
2019-11-15 21:00:00 10.1 9 Noroeste 22 Norte 0 -- -- 56
2019-11-15 20:00:00 9.8 6 Noroeste 17 Oeste 0 -- -- 56
2019-11-15 19:00:00 11.4 7 Noroeste 24 Noroeste 0 -- -- 50
2019-11-15 18:00:00 12.9 12 Noroeste 28 Noroeste 0 -- -- 42
2019-11-15 17:00:00 14.1 15 Noroeste 36 Oeste 0 -- -- 39
2019-11-15 16:00:00 15.4 17 Noroeste 35 Noroeste 0 -- -- 38
2019-11-15 15:00:00 14.5 17 Noroeste 43 Noroeste 0 -- -- 39
2019-11-15 14:00:00 15 17 Noroeste 41 Norte 0 -- -- 41
2019-11-15 13:00:00 14.6 18 Noroeste 42 Noroeste 0 -- -- 43
2019-11-15 12:00:00 13.6 15 Noroeste 37 Oeste 0.2 -- -- 48
2019-11-15 11:00:00 12.1 16 Noroeste 32 Noroeste 0 -- -- 57
2019-11-15 10:00:00 10.4 9 Noroeste 20 Noroeste 0 -- -- 69
2019-11-15 09:00:00 7.6 5 Oeste 15 Noroeste 0 -- -- 84
2019-11-15 08:00:00 7.6 8 Noroeste 24 Noroeste 0 -- -- 83
2019-11-15 07:00:00 8.3 10 Noroeste 24 Noroeste 0 -- -- 80
2019-11-15 06:00:00 8.2 7 Noroeste 19 Noroeste 0 -- -- 80
2019-11-15 05:00:00 7.6 6 Oeste 17 Oeste 0 -- -- 83
2019-11-15 04:00:00 7.3 5 Oeste 14 Oeste 0 -- -- 85
2019-11-15 03:00:00 7.9 8 Oeste 17 Oeste 0 -- -- 84
2019-11-15 02:00:00 8.9 8 Oeste 21 Oeste 0 -- -- 83
2019-11-15 01:00:00 9 9 Noroeste 25 Noroeste 0 -- -- 86
2019-11-15 00:00:00 9.7 8 Noroeste 15 Oeste 0 -- -- 80
2019-11-14 23:00:00 9.5 8 Oeste 13 Oeste 0 -- -- 81
2019-11-14 22:00:00 10 6 Noroeste 18 Oeste 0 -- -- 79
2019-11-14 21:00:00 10.7 9 Noroeste 18 Oeste 0 -- -- 76
2019-11-14 20:00:00 11 9 Oeste 15 Oeste 0 -- -- 75
2019-11-14 19:00:00 11.5 5 Oeste 21 Noroeste 0 -- -- 74
2019-11-14 18:00:00 12.8 12 Noroeste 33 Noroeste 0 -- -- 67
2019-11-14 17:00:00 12.5 7 Noroeste 41 Noroeste 0.6 -- -- 83
2019-11-14 16:00:00 16 15 Noroeste 34 Noroeste 0 -- -- 54
2019-11-14 15:00:00 15.2 18 Noroeste 42 Oeste 0 -- -- 57
2019-11-14 14:00:00 14.9 16 Noroeste 36 Oeste 0.2 -- -- 70
2019-11-14 13:00:00 13.3 13 Noroeste 35 Noroeste 0.2 -- -- 88
2019-11-14 12:00:00 13.8 17 Noroeste 51 Noroeste 0 -- -- 79
2019-11-14 11:00:00 15.9 20 Oeste 35 Oeste 0 -- -- 72
2019-11-14 10:00:00 14.5 13 Oeste 32 Oeste 0 -- -- 79
2019-11-14 09:00:00 14.2 17 Oeste 33 Oeste 0 -- -- 84
2019-11-14 08:00:00 13.4 10 Oeste 22 Oeste 0 -- -- 88
2019-11-14 07:00:00 13.4 10 Oeste 21 Oeste 0 -- -- 77
2019-11-14 06:00:00 11.7 8 Oeste 19 Oeste 0 -- -- 86
2019-11-14 05:00:00 10.9 5 Oeste 12 Oeste 0 -- -- 86
2019-11-14 04:00:00 10.5 7 Oeste 14 Oeste 0 -- -- 89
2019-11-14 03:00:00 10 4 Oeste 13 Oeste 0 -- -- 90
2019-11-14 02:00:00 10.6 6 Oeste 12 Oeste 0 -- -- 90
2019-11-14 01:00:00 11.8 5 Noroeste 14 Oeste 0 -- -- 90
2019-11-14 00:00:00 12.8 6 Oeste 13 Oeste 0 -- -- 92
2019-11-13 23:00:00 13.3 6 Noroeste 13 Oeste 0 -- -- 89
2019-11-13 22:00:00 13.5 6 Noroeste 13 Noroeste 0 -- -- 84
2019-11-13 21:00:00 12.6 6 Oeste 9 Oeste 0 -- -- 82
2019-11-13 20:00:00 14.3 5 Oeste 8 Oeste 0 -- -- 73
2019-11-13 19:00:00 18.2 3 Noroeste 15 Noroeste 0 -- -- 61
2019-11-13 18:00:00 20.6 10 Noroeste 22 Noroeste 0 -- -- 53
2019-11-13 17:00:00 22.3 10 Oeste 27 Noroeste 0 -- -- 48
2019-11-13 16:00:00 22.9 15 Oeste 28 Oeste 0 -- -- 47
2019-11-13 15:00:00 23 14 Noroeste 39 Noroeste 0 -- -- 45
2019-11-13 14:00:00 22.4 13 Noroeste 33 Norte 0 -- -- 46
2019-11-13 13:00:00 21.4 16 Oeste 33 Noroeste 0 -- -- 55
2019-11-13 12:00:00 17.6 13 Sudoeste 26 Sudoeste 0 -- -- 80
2019-11-13 11:00:00 16.8 16 Oeste 27 Oeste 0 -- -- 81
2019-11-13 10:00:00 16.1 13 Oeste 25 Oeste 0 -- -- 89
2019-11-13 09:00:00 14.9 10 Oeste 23 Oeste 0 -- -- 95
2019-11-13 08:00:00 14.6 13 Oeste 22 Oeste 0 -- -- 95
2019-11-13 07:00:00 14.2 11 Oeste 20 Oeste 0 -- -- 96
2019-11-13 06:00:00 14.2 11 Oeste 23 Oeste 0 -- -- 94
2019-11-13 05:00:00 14.2 13 Oeste 22 Oeste 0 -- -- 92
2019-11-13 04:00:00 14.6 14 Oeste 24 Oeste 0 -- -- 89
2019-11-13 03:00:00 14.2 11 Oeste 21 Oeste 0 -- -- 86
2019-11-13 02:00:00 14.2 10 Sudoeste 22 Oeste 0 -- -- 81
2019-11-13 01:00:00 13.8 4 Oeste 11 Oeste 0 -- -- 80
2019-11-13 00:00:00 14.1 6 Oeste 14 Oeste 0 -- -- 75
2019-11-12 23:00:00 12.8 6 Oeste 12 Oeste 0 -- -- 79
2019-11-12 22:00:00 12.9 4 Sudoeste 6 Oeste 0 -- -- 77
2019-11-12 21:00:00 14.4 2 Oeste 18 Noroeste 0 -- -- 71
2019-11-12 20:00:00 15.4 7 Noroeste 25 Oeste 0 -- -- 65
2019-11-12 19:00:00 16.5 8 Noroeste 22 Norte 0 -- -- 58
2019-11-12 18:00:00 18.7 10 Noroeste 31 Noroeste 0 -- -- 46
2019-11-12 17:00:00 20.2 13 Norte 29 Noroeste 0 -- -- 39
2019-11-12 16:00:00 20.9 13 Noroeste 29 Noroeste 0 -- -- 35
2019-11-12 15:00:00 20.4 13 Norte 32 Noroeste 0 -- -- 36
2019-11-12 14:00:00 19.7 12 Noroeste 30 Norte 0 -- -- 42
2019-11-12 13:00:00 18.1 13 Noroeste 32 Noroeste 0 -- -- 48
2019-11-12 12:00:00 16.9 11 Norte 27 Noroeste 0 -- -- 55
2019-11-12 11:00:00 14.3 9 Noroeste 17 Noroeste 0 -- -- 67
2019-11-12 10:00:00 11.6 6 Noroeste 13 Oeste 0 -- -- 84
2019-11-12 09:00:00 8.6 5 Noroeste 9 Oeste 0 -- -- 99
2019-11-12 08:00:00 7.8 5 Noroeste 10 Oeste 0 -- -- 97
2019-11-12 07:00:00 8.3 4 Oeste 8 Oeste 0 -- -- 96
2019-11-12 06:00:00 8.9 5 Noroeste 14 Noroeste 0 -- -- 94
2019-11-12 05:00:00 9.4 2 Noroeste 9 Noroeste 0 -- -- 92
2019-11-12 04:00:00 10.1 6 Noroeste 16 Noroeste 0 -- -- 90
2019-11-12 03:00:00 11.3 10 Noroeste 32 Noroeste 0 -- -- 85
2019-11-12 02:00:00 12 15 Noroeste 28 Noroeste 0 -- -- 82
2019-11-12 01:00:00 12.7 10 Noroeste 30 Noroeste 0 -- -- 80
2019-11-12 00:00:00 13.3 10 Noroeste 24 Noroeste 0 -- -- 77
2019-11-11 23:00:00 14.2 13 Noroeste 23 Norte 0 -- -- 77
2019-11-11 22:00:00 15.3 11 Noroeste 23 Noroeste 0 -- -- 76
2019-11-11 21:00:00 15.4 8 Noroeste 15 Noroeste 0 -- -- 78
2019-11-11 20:00:00 16.1 4 Oeste 15 Sudoeste 0 -- -- 84
2019-11-11 19:00:00 17.2 4 Sur 14 Noroeste 0 -- -- 83
2019-11-11 18:00:00 18.9 8 Noroeste 27 Noroeste 0 -- -- 77
2019-11-11 17:00:00 19.5 13 Noroeste 29 Norte 0 -- -- 74
2019-11-11 16:00:00 19.7 15 Noroeste 32 Noroeste 0 -- -- 72
2019-11-11 15:00:00 20.5 12 Noroeste 36 Noroeste 0 -- -- 67
2019-11-11 14:00:00 20.1 13 Noroeste 28 Noroeste 0 -- -- 68
2019-11-11 13:00:00 18.9 11 Noroeste 29 Noroeste 0 -- -- 75
2019-11-11 12:00:00 17.7 9 Noroeste 23 Oeste 0 -- -- 85
2019-11-11 11:00:00 16.6 9 Noroeste 15 Oeste 0 -- -- 94
2019-11-11 10:00:00 15.8 6 Oeste 15 Oeste 0 -- -- 97
2019-11-11 09:00:00 14.2 4 Oeste 7 Oeste 0 -- -- 99
2019-11-11 08:00:00 13.5 0 Calma 3 Nordeste 0.2 -- -- 98
2019-11-11 07:00:00 13.3 0 Calma 4 Sudoeste 0 -- -- 98
2019-11-11 06:00:00 13.1 0 Calma 5 Oeste 0 -- -- 97
2019-11-11 05:00:00 13 0 Calma 10 Oeste 0 -- -- 97
2019-11-11 04:00:00 12.9 6 Oeste 10 Oeste 0.2 -- -- 97
2019-11-11 03:00:00 12.9 3 Oeste 7 Oeste 1 -- -- 96
2019-11-11 02:00:00 13.2 4 Oeste 13 Oeste 0 -- -- 92
2019-11-11 01:00:00 14.1 5 Oeste 17 Oeste 0 -- -- 78
2019-11-11 00:00:00 14.3 6 Oeste 19 Noroeste 0 -- -- 75
2019-11-10 23:00:00 13.7 8 Noroeste 17 Noroeste 0 -- -- 77
2019-11-10 22:00:00 12.7 2 Noroeste 8 Noroeste 0 -- -- 81
2019-11-10 21:00:00 13 4 Noroeste 26 Norte 0 -- -- 79
2019-11-10 20:00:00 14.5 15 Norte 27 Norte 0 -- -- 71
2019-11-10 19:00:00 16.2 10 Noroeste 32 Noroeste 0 -- -- 57
2019-11-10 18:00:00 17.1 11 Noroeste 31 Noroeste 0 -- -- 55
2019-11-10 17:00:00 17.6 16 Noroeste 37 Norte 0 -- -- 51
2019-11-10 16:00:00 18.4 18 Noroeste 49 Norte 0 -- -- 46
2019-11-10 15:00:00 19 18 Noroeste 51 Noroeste 0 -- -- 41
2019-11-10 14:00:00 19 22 Noroeste 49 Norte 0 -- -- 38
2019-11-10 13:00:00 18.3 19 Noroeste 45 Noroeste 0 -- -- 40
2019-11-10 12:00:00 17.9 14 Noroeste 34 Noroeste 0 -- -- 43
2019-11-10 11:00:00 16.1 11 Noroeste 32 Noroeste 0 -- -- 54
2019-11-10 10:00:00 14.2 9 Noroeste 24 Noroeste 0 -- -- 67
2019-11-10 09:00:00 12.5 10 Noroeste 27 Noroeste 0 -- -- 78
2019-11-10 08:00:00 12.5 15 Noroeste 33 Norte 0 -- -- 78
2019-11-10 07:00:00 12.5 11 Noroeste 27 Noroeste 0 -- -- 79
2019-11-10 06:00:00 12.7 13 Noroeste 30 Oeste 0 -- -- 81
2019-11-10 05:00:00 12.9 15 Noroeste 39 Noroeste 0 -- -- 79
2019-11-10 04:00:00 12.9 17 Noroeste 44 Noroeste 0 -- -- 79
2019-11-10 03:00:00 13.3 22 Noroeste 44 Noroeste -- -- -- 75
2019-11-10 02:00:00 13.9 19 Noroeste 44 Noroeste 0 -- -- 67
2019-11-10 01:00:00 15.2 15 Noroeste 36 Noroeste 0 -- -- 62
2019-11-10 00:00:00 16.4 14 Noroeste 28 Noroeste 0 -- -- 79
2019-11-09 23:00:00 15.7 10 Oeste 28 Sudoeste 0 -- -- 83
2019-11-09 22:00:00 15.7 13 Oeste 26 Oeste 0 -- -- 84
2019-11-09 21:00:00 15.7 6 Oeste 12 Sudoeste 0 -- -- 82
2019-11-09 20:00:00 15.6 8 Oeste 19 Oeste 0 -- -- 83
2019-11-09 19:00:00 15.6 10 Sudoeste 19 Sudoeste 0 -- -- 82
2019-11-09 18:00:00 16.1 10 Sudoeste 23 Oeste 0 -- -- 74
2019-11-09 17:00:00 16.1 12 Sudoeste 29 Sudoeste 0 -- -- 69
2019-11-09 16:00:00 18.8 15 Oeste 31 Noroeste 0 -- -- 55
2019-11-09 15:00:00 19.9 11 Noroeste 30 Norte 0 -- -- 42
2019-11-09 14:00:00 18.5 11 Norte 25 Oeste 0 -- -- 45
2019-11-09 13:00:00 17.6 11 Noroeste 25 Noroeste 0 -- -- 45
2019-11-09 12:00:00 16 11 Norte 24 Norte 0 -- -- 52
2019-11-09 11:00:00 14 9 Noroeste 17 Noroeste 0 -- -- 62
2019-11-09 10:00:00 11.3 6 Noroeste 14 Noroeste 0 -- -- 71
2019-11-09 09:00:00 6.9 6 Noroeste 11 Noroeste 0 -- -- 87
2019-11-09 08:00:00 6.1 5 Noroeste 14 Noroeste 0 -- -- 88
2019-11-09 07:00:00 6.7 7 Noroeste 13 Noroeste 0 -- -- 86
2019-11-09 06:00:00 6.7 5 Noroeste 14 Noroeste 0 -- -- 87
2019-11-09 05:00:00 6.1 7 Norte 13 Noroeste 0 -- -- 86
2019-11-09 04:00:00 7.1 4 Noroeste 18 Noroeste 0 -- -- 80
2019-11-09 03:00:00 8 8 Noroeste 17 Noroeste 0 -- -- 77
2019-11-09 02:00:00 8 5 Noroeste 14 Noroeste 0 -- -- 75
2019-11-09 01:00:00 7.9 7 Noroeste 11 Noroeste 0 -- -- 75
2019-11-09 00:00:00 7.8 6 Noroeste 13 Noroeste 0 -- -- 74
2019-11-08 23:00:00 8.8 2 Sudoeste 9 Noroeste 0 -- -- 68
2019-11-08 22:00:00 8.6 4 Noroeste 13 Noroeste 0 -- -- 66
2019-11-08 21:00:00 9.3 4 Noroeste 7 Noroeste 0 -- -- 61
2019-11-08 20:00:00 12.4 3 Norte 14 Noroeste 0 -- -- 50
2019-11-08 19:00:00 14.1 8 Norte 18 Norte 0 -- -- 44
2019-11-08 18:00:00 16.9 9 Noroeste 24 Noroeste 0 -- -- 35
2019-11-08 17:00:00 18.3 11 Noroeste 28 Noroeste 0 -- -- 31
2019-11-08 16:00:00 18.9 16 Noroeste 31 Norte 0 -- -- 33
2019-11-08 15:00:00 18.7 15 Noroeste 40 Noroeste 0 -- -- 33
2019-11-08 14:00:00 18.3 14 Noroeste 31 Noroeste 0 -- -- 37
2019-11-08 13:00:00 17.6 17 Noroeste 35 Noroeste 0 -- -- 39
2019-11-08 12:00:00 16.6 14 Noroeste 32 Norte 0 -- -- 46
2019-11-08 11:00:00 15.3 10 Noroeste 25 Noroeste 0 -- -- 53
2019-11-08 10:00:00 13.9 9 Noroeste 22 Noroeste 0 -- -- 68
2019-11-08 09:00:00 11.7 9 Noroeste 17 Oeste 0 -- -- 81
2019-11-08 08:00:00 10.9 7 Noroeste 16 Noroeste 0 -- -- 86
2019-11-08 07:00:00 11 6 Noroeste 13 Oeste 0 -- -- 84
2019-11-08 06:00:00 10.8 7 Noroeste 16 Noroeste 0 -- -- 84
2019-11-08 05:00:00 8.1 6 Noroeste 10 Noroeste 0 -- -- 93
2019-11-08 04:00:00 8.5 3 Noroeste 9 Oeste 0 -- -- 91
2019-11-08 03:00:00 6.4 5 Oeste 8 Oeste 0 -- -- 90
2019-11-08 02:00:00 7.6 4 Oeste 7 Oeste 0 -- -- 88
2019-11-08 01:00:00 9.1 4 Oeste 9 Oeste 0 -- -- 80
2019-11-08 00:00:00 9.6 6 Oeste 9 Oeste 0 -- -- 77
2019-11-07 23:00:00 10.3 3 Oeste 11 Noroeste 0 -- -- 72
2019-11-07 22:00:00 10.7 6 Noroeste 11 Oeste 0 -- -- 70
2019-11-07 21:00:00 11.7 5 Noroeste 10 Noroeste 0 -- -- 63
2019-11-07 20:00:00 14.1 5 Noroeste 16 Noroeste 0 -- -- 54
2019-11-07 19:00:00 16.1 8 Noroeste 34 Norte 0 -- -- 49
2019-11-07 18:00:00 18.4 12 Noroeste 33 Noroeste 0 -- -- 45
2019-11-07 17:00:00 19.7 13 Noroeste 35 Noroeste 0 -- -- 40
2019-11-07 16:00:00 20.3 15 Noroeste 39 Noroeste 0 -- -- 39
2019-11-07 15:00:00 19.9 19 Norte 42 Noroeste 0 -- -- 40
2019-11-07 14:00:00 20.1 15 Noroeste 37 Noroeste 0 -- -- 42
2019-11-07 13:00:00 19.5 21 Noroeste 49 Norte 0 -- -- 42
2019-11-07 12:00:00 19.1 17 Noroeste 35 Noroeste 0 -- -- 53
2019-11-07 11:00:00 17.3 11 Norte 40 Noroeste 0 -- -- 65
2019-11-07 10:00:00 15.9 9 Noroeste 24 Oeste 0 -- -- 94
2019-11-07 09:00:00 15.8 14 Oeste 27 Oeste 1 -- -- 98
2019-11-07 08:00:00 15.6 12 Sudoeste 22 Sudoeste 0.4 -- -- 96
2019-11-07 07:00:00 15.5 11 Sudoeste 21 Sudoeste 0 -- -- 92
2019-11-07 06:00:00 15.5 9 Sudoeste 18 Sudoeste 0 -- -- 89
2019-11-07 05:00:00 15.1 9 Oeste 18 Oeste 0 -- -- 89
2019-11-07 04:00:00 13.7 6 Oeste 10 Oeste 0 -- -- 87
2019-11-07 03:00:00 12.9 4 Oeste 8 Oeste 0 -- -- 85
2019-11-07 02:00:00 13.1 4 Oeste 12 Oeste 0 -- -- 83
2019-11-07 01:00:00 14.1 3 Oeste 8 Noroeste 0 -- -- 77
2019-11-07 00:00:00 15.7 4 Noroeste 12 Oeste 0 -- -- 70
2019-11-06 23:00:00 16.3 7 Noroeste 15 Noroeste 0 -- -- 67
2019-11-06 22:00:00 16.5 4 Oeste 13 Oeste 0 -- -- 66
2019-11-06 21:00:00 16.4 5 Noroeste 9 Noroeste 0 -- -- 64
2019-11-06 20:00:00 16.4 4 Noroeste 9 Noroeste 0 -- -- 62
2019-11-06 19:00:00 16.9 5 Noroeste 14 Noroeste 0 -- -- 59
2019-11-06 18:00:00 19 8 Norte 20 Noroeste 0 -- -- 52
2019-11-06 17:00:00 19.8 11 Noroeste 25 Noroeste 0 -- -- 48
2019-11-06 16:00:00 20.9 13 Noroeste 28 Oeste 0 -- -- 44
2019-11-06 15:00:00 20 11 Oeste 28 Noroeste 0 -- -- 59
2019-11-06 14:00:00 20.4 9 Norte 28 Oeste 0 -- -- 47
2019-11-06 13:00:00 19.2 10 Noroeste 26 Norte 0 -- -- 51
2019-11-06 12:00:00 18.5 9 Norte 21 Noroeste 0 -- -- 54
2019-11-06 11:00:00 16.3 8 Noroeste 21 Noroeste 0 -- -- 69
2019-11-06 10:00:00 13.4 8 Noroeste 17 Norte 0 -- -- 85
2019-11-06 09:00:00 8.7 3 Noroeste 7 Noroeste 0 -- -- 100
2019-11-06 08:00:00 6.5 0 Calma 5 Noroeste 0 -- -- 96
2019-11-06 07:00:00 8.1 2 Sudoeste 7 Noroeste 0 -- -- 95
2019-11-06 06:00:00 8.6 4 Noroeste 10 Noroeste 0 -- -- 97
2019-11-06 05:00:00 8.9 4 Norte 6 Norte 0 -- -- 93
2019-11-06 04:00:00 10.5 2 Nordeste 14 Norte 0 -- -- 90
2019-11-06 03:00:00 11.2 8 Noroeste 15 Noroeste 0 -- -- 90
2019-11-06 02:00:00 11.4 0 Calma 12 Oeste 0 -- -- 86
2019-11-06 01:00:00 11.8 6 Noroeste 12 Oeste 0 -- -- 84
2019-11-06 00:00:00 12.7 7 Noroeste 16 Oeste 0 -- -- 80
2019-11-05 23:00:00 12 6 Oeste 12 Oeste 0 -- -- 82
2019-11-05 22:00:00 13.4 6 Oeste 12 Oeste 0 -- -- 76
2019-11-05 21:00:00 14.9 5 Oeste 23 Noroeste 0 -- -- 70
2019-11-05 20:00:00 16.6 7 Noroeste 18 Noroeste 0 -- -- 64
2019-11-05 19:00:00 17.8 5 Noroeste 25 Noroeste 0 -- -- 57
2019-11-05 18:00:00 19.7 12 Noroeste 26 Norte 0 -- -- 49
2019-11-05 17:00:00 21 14 Noroeste 28 Noroeste 0 -- -- 46
2019-11-05 16:00:00 22.8 15 Noroeste 33 Noroeste 0 -- -- 42
2019-11-05 15:00:00 22.6 14 Noroeste 35 Noroeste 0 -- -- 44
2019-11-05 14:00:00 21.9 14 Noroeste 33 Sudoeste 0 -- -- 46
2019-11-05 13:00:00 21.3 15 Noroeste 33 Oeste 0 -- -- 49
2019-11-05 12:00:00 19.3 14 Noroeste 31 Oeste 0 -- -- 57
2019-11-05 11:00:00 17.8 13 Noroeste 27 Noroeste 0 -- -- 65
2019-11-05 10:00:00 15.3 7 Oeste 17 Oeste 0 -- -- 77
2019-11-05 09:00:00 10.9 4 Oeste 8 Oeste 0 -- -- 97
2019-11-05 08:00:00 10 4 Oeste 8 Oeste 0 -- -- 93
2019-11-05 07:00:00 11 5 Oeste 9 Noroeste 0 -- -- 92
2019-11-05 06:00:00 12.6 4 Oeste 17 Noroeste 0 -- -- 88
2019-11-05 05:00:00 13.5 8 Noroeste 22 Noroeste 0 -- -- 85
2019-11-05 04:00:00 13.6 6 Noroeste 16 Oeste 0 -- -- 84
2019-11-05 03:00:00 14.9 7 Noroeste 20 Oeste 0 -- -- 80
2019-11-05 02:00:00 15.4 5 Oeste 25 Noroeste 0 -- -- 86
2019-11-05 01:00:00 15.9 10 Oeste 19 Oeste 0.2 -- -- 95
2019-11-05 00:00:00 16 4 Noroeste 20 Oeste 0 -- -- 96
2019-11-04 23:00:00 16.6 5 Oeste 13 Noroeste 0 -- -- 94
2019-11-04 22:00:00 17.3 8 Noroeste 25 Oeste 0 -- -- 87
2019-11-04 21:00:00 17.7 16 Oeste 28 Oeste 0 -- -- 88
2019-11-04 20:00:00 17.7 18 Oeste 33 Oeste 0 -- -- 85
2019-11-04 19:00:00 18 21 Sudoeste 35 Sudoeste 0 -- -- 86
2019-11-04 18:00:00 18.5 22 Sudoeste 40 Sudoeste 0 -- -- 85
2019-11-04 17:00:00 19.1 19 Sudoeste 35 Sudoeste 0 -- -- 82
2019-11-04 16:00:00 19.5 21 Sudoeste 34 Sudoeste 0 -- -- 78
2019-11-04 15:00:00 19.5 22 Sudoeste 36 Sudoeste 0 -- -- 79
2019-11-04 14:00:00 19.2 17 Sudoeste 28 Sudoeste 0 -- -- 82
2019-11-04 13:00:00 19.1 14 Sudoeste 23 Sudoeste 0 -- -- 84
2019-11-04 12:00:00 18.7 14 Sudoeste 25 Sudoeste 0 -- -- 83
2019-11-04 11:00:00 18.9 15 Sudoeste 24 Oeste 0 -- -- 82
2019-11-04 10:00:00 18 12 Sudoeste 20 Sudoeste 0 -- -- 86
2019-11-04 09:00:00 17 4 Oeste 9 Oeste 0 -- -- 90
2019-11-04 08:00:00 16.7 4 Sudoeste 24 Noroeste 0 -- -- 94
2019-11-04 07:00:00 17.2 12 Oeste 18 Sudoeste 0 -- -- 95
2019-11-04 06:00:00 17.1 3 Oeste 21 Oeste 0 -- -- 94
2019-11-04 05:00:00 17.3 8 Oeste 19 Oeste 0 -- -- 93
2019-11-04 04:00:00 17.5 11 Oeste 18 Oeste 0 -- -- 93
2019-11-04 03:00:00 17.6 7 Oeste 17 Oeste 0 -- -- 89
2019-11-04 02:00:00 17.6 8 Oeste 14 Oeste 0 -- -- 90
2019-11-04 01:00:00 18.4 5 Oeste 18 Oeste 0 -- -- 80
2019-11-04 00:00:00 18.8 5 Oeste 16 Oeste 0 -- -- 74
2019-11-03 23:00:00 19.3 9 Noroeste 20 Oeste 0 -- -- 71
2019-11-03 22:00:00 18.8 5 Noroeste 15 Noroeste 0 -- -- 74
2019-11-03 21:00:00 18.4 5 Oeste 13 Noroeste 0 -- -- 74
2019-11-03 20:00:00 18.8 6 Noroeste 16 Oeste 0 -- -- 73
2019-11-03 19:00:00 19 14 Oeste 23 Noroeste 0 -- -- 84
2019-11-03 18:00:00 22.6 10 Noroeste 28 Noroeste 0 -- -- 56
2019-11-03 17:00:00 23.9 15 Noroeste 29 Oeste 0 -- -- 52
2019-11-03 16:00:00 24.2 16 Oeste 32 Oeste 0 -- -- 52
2019-11-03 15:00:00 23.6 14 Noroeste 31 Oeste 0 -- -- 56
2019-11-03 14:00:00 23 13 Noroeste 32 Oeste 0 -- -- 57
2019-11-03 13:00:00 22.3 13 Noroeste 33 Oeste 0 -- -- 62
2019-11-03 12:00:00 20.3 14 Sudoeste 30 Sudoeste 0 -- -- 75
2019-11-03 11:00:00 19.5 17 Sudoeste 31 Oeste 0 -- -- 78
2019-11-03 10:00:00 19.4 12 Sudoeste 27 Oeste 0 -- -- 78
2019-11-03 09:00:00 17.8 9 Oeste 17 Sudoeste 0 -- -- 83
2019-11-03 08:00:00 17 10 Oeste 17 Oeste 0 -- -- 86
2019-11-03 07:00:00 17 9 Oeste 18 Oeste 0 -- -- 87
2019-11-03 06:00:00 17 8 Oeste 18 Sudoeste 0 -- -- 88
2019-11-03 05:00:00 17 5 Oeste 12 Oeste 0 -- -- 90
2019-11-03 04:00:00 17.3 5 Oeste 25 Oeste 0 -- -- 95
2019-11-03 03:00:00 17.8 8 Oeste 16 Oeste 0.2 -- -- 97
2019-11-03 02:00:00 18 12 Oeste 27 Sudoeste 0 -- -- 96
2019-11-03 01:00:00 18.1 11 Oeste 24 Oeste 0 -- -- 96
2019-11-03 00:00:00 18 12 Oeste 26 Oeste 0 -- -- 95
2019-11-02 23:00:00 18.3 15 Oeste 23 Oeste 0 -- -- 93
2019-11-02 22:00:00 18.5 13 Oeste 26 Oeste 0 -- -- 92
2019-11-02 21:00:00 18.6 12 Oeste 21 Sudoeste 0 -- -- 92
2019-11-02 20:00:00 19.1 11 Oeste 28 Sudoeste 0 -- -- 89
2019-11-02 19:00:00 19 17 Oeste 31 Oeste 0 -- -- 90
2019-11-02 18:00:00 19.5 16 Oeste 33 Oeste 0 -- -- 87
2019-11-02 17:00:00 20 22 Oeste 41 Oeste 0 -- -- 87
2019-11-02 16:00:00 20.7 24 Sudoeste 41 Sudoeste 0 -- -- 85
2019-11-02 15:00:00 21.2 20 Sudoeste 35 Sudoeste 0 -- -- 82
2019-11-02 14:00:00 20.7 21 Sudoeste 33 Sudoeste 0.2 -- -- 89
2019-11-02 13:00:00 21.3 20 Sudoeste 32 Sudoeste 0 -- -- 86
2019-11-02 12:00:00 19.3 13 Sudoeste 26 Sudoeste 0 -- -- 98
2019-11-02 11:00:00 18.4 15 Sudoeste 25 Sudoeste 0 -- -- 99
2019-11-02 10:00:00 18.2 15 Sudoeste 26 Oeste 0 -- -- 99
2019-11-02 09:00:00 18.2 14 Sudoeste 27 Oeste 0 -- -- 99
2019-11-02 08:00:00 18.4 13 Sudoeste 22 Sudoeste 0 -- -- 98
2019-11-02 07:00:00 18.4 10 Sudoeste 22 Sudoeste 0 -- -- 97
2019-11-02 06:00:00 18.4 12 Oeste 22 Oeste 0.2 -- -- 96
2019-11-02 05:00:00 18.6 11 Oeste 22 Oeste 0 -- -- 93
2019-11-02 04:00:00 18.4 12 Oeste 25 Sudoeste 0 -- -- 94
2019-11-02 03:00:00 18.1 11 Oeste 24 Sudoeste 0 -- -- 97
2019-11-02 02:00:00 18.4 10 Oeste 21 Oeste 0 -- -- 97
2019-11-02 01:00:00 18.5 9 Sudoeste 20 Oeste 0.2 -- -- 96
2019-11-02 00:00:00 18.7 6 Sudoeste 21 Sudoeste 0 -- -- 94
2019-11-01 23:00:00 18.7 9 Sudoeste 15 Oeste 0.2 -- -- 95
2019-11-01 22:00:00 19.1 2 Sudeste 8 Noroeste 0.2 -- -- 95
2019-11-01 21:00:00 18.7 3 Noroeste 8 Oeste 0 -- -- 94
2019-11-01 20:00:00 19 6 Oeste 13 Sudoeste 0 -- -- 92
2019-11-01 19:00:00 19.2 6 Sudoeste 15 Sudoeste 0 -- -- 92
2019-11-01 18:00:00 20.1 11 Sudoeste 23 Sudoeste 0 -- -- 88
2019-11-01 17:00:00 20.8 14 Sudoeste 26 Sudoeste 0 -- -- 85
2019-11-01 16:00:00 21.8 13 Sudoeste 26 Sudoeste 0 -- -- 82
2019-11-01 15:00:00 21.4 18 Sudoeste 27 Sudoeste 0 -- -- 83
2019-11-01 14:00:00 21.9 16 Sudoeste 24 Sudoeste 0 -- -- 81
2019-11-01 13:00:00 21.8 13 Sudoeste 22 Sudoeste 0 -- -- 82
2019-11-01 12:00:00 22.2 15 Sudoeste 25 Noroeste 0 -- -- 78
2019-11-01 11:00:00 22.9 9 Oeste 19 Oeste 0 -- -- 76
2019-11-01 10:00:00 21.4 9 Noroeste 18 Noroeste 0 -- -- 82
2019-11-01 09:00:00 20.2 4 Noroeste 10 Oeste 0 -- -- 90
2019-11-01 08:00:00 19.7 3 Oeste 9 Noroeste 0 -- -- 92
2019-11-01 07:00:00 19.8 3 Noroeste 15 Noroeste 0 -- -- 91
2019-11-01 06:00:00 19.3 2 Oeste 18 Noroeste 0 -- -- 92
2019-11-01 05:00:00 18.5 3 Noroeste 11 Noroeste 0 -- -- 96
2019-11-01 04:00:00 16.7 4 Oeste 6 Oeste 0 -- -- 96
2019-11-01 03:00:00 17.6 0 Calma 6 Noroeste 0 -- -- 94
2019-11-01 02:00:00 18.3 3 Noroeste 13 Noroeste 0 -- -- 95
2019-11-01 01:00:00 18.9 8 Noroeste 18 Noroeste 0 -- -- 93
2019-11-01 00:00:00 19.3 5 Noroeste 20 Noroeste 0 -- -- 92
2019-10-31 23:00:00 19.8 8 Noroeste 19 Noroeste 0 -- -- 90
2019-10-31 22:00:00 20.3 6 Noroeste 13 Oeste 0 -- -- 88
2019-10-31 21:00:00 21.2 6 Noroeste 19 Norte 0 -- -- 83
2019-10-31 20:00:00 22.4 12 Noroeste 26 Noroeste 0 -- -- 78
2019-10-31 19:00:00 20.8 2 Sudoeste 14 Oeste 0 -- -- 88
2019-10-31 18:00:00 21.1 10 Oeste 21 Sudoeste 0 -- -- 87
2019-10-31 17:00:00 22 14 Oeste 22 Oeste 0 -- -- 84
2019-10-31 16:00:00 22.6 12 Sudoeste 23 Sudoeste 0 -- -- 79
2019-10-31 15:00:00 21.7 14 Sudoeste 25 Sudoeste 0 -- -- 85
2019-10-31 14:00:00 22.7 12 Sudoeste 22 Sudoeste 0 -- -- 78
2019-10-31 13:00:00 22.7 9 Sudoeste 21 Sudoeste 0 -- -- 78
2019-10-31 12:00:00 22.9 12 Sudoeste 19 Sudoeste 0 -- -- 77
2019-10-31 11:00:00 22.4 8 Sudoeste 13 Sudoeste 0 -- -- 80
2019-10-31 10:00:00 19.2 5 Oeste 11 Sudoeste 0 -- -- 94
2019-10-31 09:00:00 18.2 3 Sudoeste 5 Sur 0 -- -- 98
2019-10-31 08:00:00 16.8 0 Calma 4 Sudoeste 0 -- -- 99
2019-10-31 07:00:00 16.3 2 Sudoeste 6 Noroeste 0 -- -- 98
2019-10-31 06:00:00 16 4 Norte 11 Noroeste 0 -- -- 100
2019-10-31 05:00:00 15.9 0 Calma 4 Sudeste 0 -- -- 96
2019-10-31 04:00:00 16.6 3 Noroeste 9 Noroeste 0 -- -- 97
2019-10-31 03:00:00 16.4 5 Oeste 8 Noroeste 0 -- -- 97
2019-10-31 02:00:00 17 0 Calma 6 Norte 0 -- -- 95
2019-10-31 01:00:00 17.7 4 Noroeste 9 Norte 0 -- -- 93
2019-10-31 00:00:00 17.9 5 Noroeste 10 Noroeste 0 -- -- 94
2019-10-30 23:00:00 18.1 3 Norte 8 Noroeste 0 -- -- 95
2019-10-30 22:00:00 18 4 Norte 7 Norte 0 -- -- 96
2019-10-30 21:00:00 18.6 3 Oeste 21 Sudoeste 0 -- -- 95
2019-10-30 20:00:00 19 9 Oeste 19 Oeste 0 -- -- 94
2019-10-30 19:00:00 19.3 9 Sudoeste 16 Sudoeste 0 -- -- 93
2019-10-30 18:00:00 20.1 9 Sudoeste 17 Sudoeste 0 -- -- 88
2019-10-30 17:00:00 20.5 9 Sudoeste 18 Sudoeste 0 -- -- 87
2019-10-30 16:00:00 21 12 Sudoeste 19 Sudoeste 0 -- -- 84
2019-10-30 15:00:00 21.5 10 Sudoeste 18 Sudoeste 0 -- -- 76
2019-10-30 14:00:00 22 9 Sudoeste 15 Sudoeste 0 -- -- 78
2019-10-30 13:00:00 20.4 6 Sudoeste 10 Sudoeste 0 -- -- 84
2019-10-30 12:00:00 20.1 6 Sur 9 Sudoeste 0 -- -- 84
2019-10-30 11:00:00 19.7 6 Sur 10 Sudeste 0 -- -- 86
2019-10-30 10:00:00 18.9 4 Sur 7 Sur 0 -- -- 92
2019-10-30 09:00:00 17 0 Calma 5 Nordeste 0 -- -- 99
2019-10-30 08:00:00 15.2 2 Noroeste 4 Norte 0 -- -- 99
2019-10-30 07:00:00 15.8 2 Norte 11 Noroeste 0 -- -- 98
2019-10-30 06:00:00 16.4 6 Noroeste 12 Noroeste 0 -- -- 99
2019-10-30 05:00:00 15.8 4 Norte 7 Oeste 0 -- -- 97
2019-10-30 04:00:00 16.5 5 Norte 12 Norte 0 -- -- 98
2019-10-30 03:00:00 16.8 6 Norte 12 Noroeste 0 -- -- 98
2019-10-30 02:00:00 15.6 4 Noroeste 6 Noroeste 0 -- -- 99
2019-10-30 01:00:00 16.1 3 Norte 4 Nordeste 0 -- -- 97
2019-10-30 00:00:00 17.7 2 Noroeste 6 Oeste 0 -- -- 98
2019-10-29 23:00:00 17.8 0 Calma 10 Sudoeste 0 -- -- 98
2019-10-29 22:00:00 18.5 6 Oeste 13 Oeste 0 -- -- 97
2019-10-29 21:00:00 19 4 Oeste 15 Oeste 0 -- -- 96
2019-10-29 20:00:00 18.8 8 Oeste 15 Oeste 0 -- -- 96
2019-10-29 19:00:00 18.7 6 Oeste 14 Sudoeste 0 -- -- 96
2019-10-29 18:00:00 19.1 8 Sudoeste 16 Oeste 0 -- -- 94
2019-10-29 17:00:00 19.1 10 Sudoeste 20 Sudoeste 0 -- -- 93
2019-10-29 16:00:00 19.7 14 Sudoeste 24 Sudoeste 0 -- -- 88
2019-10-29 15:00:00 21.7 10 Sudoeste 14 Sudoeste 0 -- -- 79
2019-10-29 14:00:00 21.1 7 Sur 12 Sudoeste 0 -- -- 81
2019-10-29 13:00:00 19.8 7 Sur 14 Sudoeste 0 -- -- 85
2019-10-29 12:00:00 18.7 5 Sur 10 Sur 0 -- -- 93
2019-10-29 11:00:00 17.7 2 Sudeste 5 Sur 0 -- -- 100
2019-10-29 10:00:00 17 0 Calma 5 Sudoeste 0 -- -- 100
2019-10-29 09:00:00 16 0 Calma 5 Norte 0 -- -- 99
2019-10-29 08:00:00 15.7 4 Norte 7 Nordeste 0 -- -- 99
2019-10-29 07:00:00 16.7 4 Norte 9 Norte 0 -- -- 99
2019-10-29 06:00:00 17.2 3 Norte 7 Noroeste 0 -- -- 99
2019-10-29 05:00:00 17.7 0 Calma 8 Noroeste 0 -- -- 99
2019-10-29 04:00:00 17.8 5 Noroeste 10 Noroeste 0 -- -- 99
2019-10-29 03:00:00 18 4 Noroeste 9 Oeste 0 -- -- 99
2019-10-29 02:00:00 18.2 0 Calma 6 Norte 0 -- -- 99
2019-10-29 01:00:00 18.5 3 Noroeste 8 Oeste 0 -- -- 98
2019-10-29 00:00:00 19 6 Oeste 10 Oeste 0 -- -- 97
2019-10-28 23:00:00 18.9 4 Sur 9 Sudoeste 0 -- -- 97
2019-10-28 22:00:00 18.5 3 Sudoeste 9 Sur 0 -- -- 96
2019-10-28 21:00:00 18.7 5 Sudeste 8 Sudeste 0 -- -- 95
2019-10-28 20:00:00 18.8 4 Sudeste 9 Sudeste 0 -- -- 93
2019-10-28 19:00:00 19.1 4 Sudeste 9 Sudeste 0 -- -- 92
2019-10-28 18:00:00 19.4 4 Sudeste 10 Sudeste 0 -- -- 88
2019-10-28 17:00:00 19.8 6 Sudeste 11 Sudeste 0 -- -- 85
2019-10-28 16:00:00 19.9 7 Sudeste 16 Sudeste 0 -- -- 83
2019-10-28 15:00:00 20.1 8 Sudeste 17 Sudeste 0 -- -- 81
2019-10-28 14:00:00 19.9 9 Sur 24 Sudeste 0 -- -- 80
2019-10-28 13:00:00 20.9 12 Sudeste 23 Sudeste 0 -- -- 74
2019-10-28 12:00:00 20.1 11 Sudeste 20 Este 0 -- -- 80
2019-10-28 11:00:00 18.4 3 Sudeste 12 Este 0 -- -- 88
2019-10-28 10:00:00 18.4 6 Sudeste 12 Sudeste 0 -- -- 90
2019-10-28 09:00:00 18.1 5 Sudeste 10 Sudeste 0 -- -- 92
2019-10-28 08:00:00 17.6 3 Este 15 Este 0 -- -- 92
2019-10-28 07:00:00 17.9 7 Sudeste 13 Sudeste 0 -- -- 93
2019-10-28 06:00:00 17.9 4 Sudeste 14 Sudeste 0 -- -- 95
2019-10-28 05:00:00 17.9 9 Sudeste 16 Sudeste 0 -- -- 95
2019-10-28 04:00:00 17.9 6 Sur 13 Sur 0 -- -- 96
2019-10-28 03:00:00 17.9 4 Sur 9 Sur 0 -- -- 97
2019-10-28 02:00:00 17.9 4 Este 10 Este 0 -- -- 97
2019-10-28 01:00:00 17.7 3 Este 10 Sudeste 0.2 -- -- 97
2019-10-28 00:00:00 17.6 6 Este 10 Este 0 -- -- 97
2019-10-27 23:00:00 17.9 3 Este 9 Sudeste 0 -- -- 96
2019-10-27 22:00:00 17.8 4 Sudeste 7 Sudeste 0 -- -- 97
2019-10-27 21:00:00 17.6 0 Calma 6 Sudoeste 0 -- -- 96
2019-10-27 20:00:00 18 3 Sudoeste 7 Sudoeste 0 -- -- 93
2019-10-27 19:00:00 18.6 3 Sur 10 Sur 0 -- -- 92
2019-10-27 18:00:00 19.6 7 Sur 15 Sudeste 0 -- -- 87
2019-10-27 17:00:00 20.3 8 Sur 17 Sudeste 0 -- -- 84
2019-10-27 16:00:00 20.3 9 Sur 22 Sudeste 0 -- -- 82
2019-10-27 15:00:00 21.1 14 Sudeste 25 Sudeste 0 -- -- 79
2019-10-27 14:00:00 21.6 14 Sudeste 24 Sudeste 0 -- -- 76
2019-10-27 13:00:00 20.4 10 Sudeste 25 Sudeste 0 -- -- 81
2019-10-27 12:00:00 20.8 12 Sudeste 23 Sudeste 0 -- -- 72
2019-10-27 11:00:00 19.8 10 Este 18 Este 0 -- -- 70
2019-10-27 10:00:00 17.6 7 Este 16 Este 0 -- -- 72
2019-10-27 09:00:00 13.6 5 Nordeste 13 Nordeste 0 -- -- 79
2019-10-27 08:00:00 10.8 6 Nordeste 12 Nordeste 0 -- -- 88
2019-10-27 07:00:00 10.5 7 Nordeste 10 Nordeste 0 -- -- 86
2019-10-27 06:00:00 9.8 4 Norte 6 Norte 0 -- -- 87
2019-10-27 05:00:00 11 5 Norte 11 Nordeste 0 -- -- 82
2019-10-27 04:00:00 11.9 8 Nordeste 12 Nordeste 0 -- -- 78
2019-10-27 03:00:00 11.9 7 Nordeste 10 Nordeste 0 -- -- 80
2019-10-27 02:00:00 12.2 6 Nordeste 10 Nordeste 0 -- -- 80
2019-10-27 01:00:00 11.4 4 Norte 7 Norte 0 -- -- 82
2019-10-27 00:00:00 11.7 5 Norte 10 Nordeste 0 -- -- 82
2019-10-26 23:00:00 12.1 5 Nordeste 7 Norte 0 -- -- 78
2019-10-26 22:00:00 13.1 5 Norte 6 Norte 0 -- -- 74
2019-10-26 21:00:00 15.2 3 Oeste 5 Oeste 0 -- -- 66
2019-10-26 20:00:00 19.3 4 Oeste 8 Oeste 0 -- -- 53
2019-10-26 19:00:00 22.6 5 Sudoeste 12 Sudoeste 0 -- -- 46
2019-10-26 18:00:00 23.5 8 Sudoeste 15 Sudoeste 0 -- -- 43
2019-10-26 17:00:00 24.1 6 Sudoeste 10 Sudoeste 0 -- -- 41
2019-10-26 16:00:00 23.8 6 Sudoeste 11 Sur 0 -- -- 42
2019-10-26 15:00:00 23.6 7 Sur 16 Sudeste 0 -- -- 40
2019-10-26 14:00:00 23.5 11 Sudeste 20 Sudeste 0 -- -- 39
2019-10-26 13:00:00 23.4 9 Este 18 Este 0 -- -- 41
2019-10-26 12:00:00 21.4 10 Este 19 Sudeste 0 -- -- 45
2019-10-26 11:00:00 17.3 8 Nordeste 15 Nordeste 0 -- -- 57
2019-10-26 10:00:00 12.8 8 Nordeste 13 Nordeste 0 -- -- 75
2019-10-26 09:00:00 10.1 7 Nordeste 12 Nordeste 0 -- -- 85
2019-10-26 08:00:00 9.9 6 Nordeste 12 Nordeste 0 -- -- 86
2019-10-26 07:00:00 9.6 6 Norte 12 Nordeste 0 -- -- 88
2019-10-26 06:00:00 9.8 6 Nordeste 10 Nordeste 0 -- -- 88
2019-10-26 05:00:00 10.6 7 Nordeste 12 Nordeste 0 -- -- 86
2019-10-26 04:00:00 10.5 7 Nordeste 12 Nordeste 0 -- -- 88
2019-10-26 03:00:00 9.6 6 Nordeste 9 Nordeste 0 -- -- 90
2019-10-26 02:00:00 9.9 4 Nordeste 8 Nordeste 0 -- -- 89
2019-10-26 01:00:00 9.3 4 Este 7 Sudeste 0 -- -- 89
2019-10-26 00:00:00 10.1 3 Sudeste 6 Sudeste 0 -- -- 85
2019-10-25 23:00:00 11.2 0 Calma 5 Norte 0 -- -- 82
2019-10-25 22:00:00 12.4 5 Nordeste 6 Nordeste 0 -- -- 77
2019-10-25 21:00:00 13.9 3 Noroeste 5 Oeste 0 -- -- 74
2019-10-25 20:00:00 17.4 3 Oeste 7 Sudoeste 0 -- -- 62
2019-10-25 19:00:00 21.2 4 Sudoeste 11 Sudoeste 0 -- -- 50
2019-10-25 18:00:00 22.6 7 Sudoeste 10 Sudoeste 0 -- -- 47
2019-10-25 17:00:00 23.1 5 Sudoeste 11 Sudoeste 0 -- -- 44
2019-10-25 16:00:00 22.4 6 Sur 13 Sur 0 -- -- 44
2019-10-25 15:00:00 22.2 8 Sur 19 Sudeste 0 -- -- 44
2019-10-25 14:00:00 21.7 10 Sudeste 18 Sudeste 0 -- -- 43
2019-10-25 13:00:00 21.4 6 Sudeste 17 Este 0 -- -- 48
2019-10-25 12:00:00 20.2 8 Este 18 Este 0 -- -- 51
2019-10-25 11:00:00 16.2 9 Nordeste 18 Este 0 -- -- 66
2019-10-25 10:00:00 11.4 4 Nordeste 8 Nordeste 0 -- -- 89
2019-10-25 09:00:00 8.1 5 Norte 8 Noroeste 0 -- -- 95
2019-10-25 08:00:00 8.7 5 Norte 7 Norte 0 -- -- 92
2019-10-25 07:00:00 10.8 4 Nordeste 12 Nordeste 0 -- -- 85
2019-10-25 06:00:00 10.5 5 Nordeste 10 Nordeste 0 -- -- 87
2019-10-25 05:00:00 10.4 5 Nordeste 12 Norte 0 -- -- 89
2019-10-25 04:00:00 10.7 6 Nordeste 12 Nordeste 0 -- -- 90
2019-10-25 03:00:00 10.5 6 Norte 13 Norte 0 -- -- 93
2019-10-25 02:00:00 10.6 8 Nordeste 14 Nordeste 0 -- -- 94
2019-10-25 01:00:00 10.9 6 Nordeste 11 Nordeste 0 -- -- 92
2019-10-25 00:00:00 11.1 5 Nordeste 10 Nordeste 0 -- -- 91
2019-10-24 23:00:00 11.4 4 Noroeste 8 Noroeste 0 -- -- 91
2019-10-24 22:00:00 12.5 4 Noroeste 7 Oeste 0 -- -- 87
2019-10-24 21:00:00 14.5 5 Oeste 10 Oeste 0 -- -- 81
2019-10-24 20:00:00 16.8 6 Oeste 18 Oeste 0 -- -- 73
2019-10-24 19:00:00 18.5 11 Sudoeste 20 Sudoeste 0 -- -- 66
2019-10-24 18:00:00 19.2 12 Sudoeste 21 Sudoeste 0 -- -- 60
2019-10-24 17:00:00 19.2 12 Sudoeste 19 Sudoeste 0 -- -- 61
2019-10-24 16:00:00 19.3 11 Sudoeste 21 Sur 0 -- -- 59
2019-10-24 15:00:00 19.2 12 Sudoeste 23 Sudoeste 0 -- -- 59
2019-10-24 14:00:00 18.6 13 Sudoeste 20 Sudoeste 0 -- -- 62
2019-10-24 13:00:00 18.2 12 Sudoeste 19 Sudoeste 0 -- -- 66
2019-10-24 12:00:00 17.8 5 Oeste 16 Oeste 0 -- -- 61
2019-10-24 11:00:00 14.9 4 Oeste 12 Noroeste 0 -- -- 77
2019-10-24 10:00:00 11 6 Noroeste 12 Noroeste 0 -- -- 96
2019-10-24 09:00:00 8.3 5 Noroeste 10 Noroeste 0 -- -- 97
2019-10-24 08:00:00 8.5 4 Noroeste 9 Noroeste 0 -- -- 96
2019-10-24 07:00:00 8.6 4 Oeste 7 Oeste 0 -- -- 94
2019-10-24 06:00:00 9.4 4 Oeste 9 Oeste 0 -- -- 92
2019-10-24 05:00:00 10.2 4 Noroeste 13 Noroeste 0 -- -- 90
2019-10-24 04:00:00 10.3 5 Noroeste 10 Noroeste 0 -- -- 89
2019-10-24 03:00:00 10.7 4 Noroeste 12 Noroeste 0 -- -- 87
2019-10-24 02:00:00 12.1 6 Oeste 12 Oeste 0 -- -- 82
2019-10-24 01:00:00 13 7 Oeste 13 Oeste 0 -- -- 78
2019-10-24 00:00:00 13.6 5 Oeste 13 Noroeste 0 -- -- 76
2019-10-23 23:00:00 14.8 9 Noroeste 21 Oeste 0 -- -- 69
2019-10-23 22:00:00 15.8 8 Oeste 27 Oeste 0 -- -- 62
2019-10-23 21:00:00 16.7 10 Oeste 22 Noroeste 0 -- -- 60
2019-10-23 20:00:00 18 10 Noroeste 39 Noroeste 0 -- -- 56
2019-10-23 19:00:00 19.7 14 Oeste 37 Noroeste 0 -- -- 49
2019-10-23 18:00:00 20 12 Noroeste 41 Noroeste 0 -- -- 45
2019-10-23 17:00:00 21.1 12 Noroeste 40 Noroeste 0 -- -- 45
2019-10-23 16:00:00 20.9 19 Oeste 44 Oeste 0 -- -- 46
2019-10-23 15:00:00 19.3 19 Oeste 39 Oeste 0.2 -- -- 51
2019-10-23 14:00:00 20 15 Oeste 40 Oeste 0 -- -- 52
2019-10-23 13:00:00 17.8 13 Oeste 25 Noroeste 0 -- -- 61
2019-10-23 12:00:00 16.9 17 Oeste 27 Oeste 0 -- -- 71
2019-10-23 11:00:00 14 9 Oeste 15 Oeste 0 -- -- 85
2019-10-23 10:00:00 -- -- -- -- -- -- -- -- --
2019-10-23 09:00:00 -- -- -- -- -- -- -- -- --
2019-10-23 08:00:00 -- -- -- -- -- -- -- -- --
2019-10-23 07:00:00 -- -- -- -- -- -- -- -- --
2019-10-23 06:00:00 -- -- -- -- -- -- -- -- --
2019-10-23 05:00:00 -- -- -- -- -- -- -- -- --
2019-10-23 04:00:00 -- -- -- -- -- -- -- -- --
2019-10-23 03:00:00 -- -- -- -- -- -- -- -- --
2019-10-23 02:00:00 -- -- -- -- -- -- -- -- --
2019-10-23 01:00:00 -- -- -- -- -- -- -- -- --
2019-10-23 00:00:00 -- -- -- -- -- -- -- -- --
2019-10-22 23:00:00 -- -- -- -- -- -- -- -- --
2019-10-22 22:00:00 -- -- -- -- -- -- -- -- --
2019-10-22 21:00:00 -- -- -- -- -- -- -- -- --
2019-10-22 20:00:00 -- -- -- -- -- -- -- -- --
2019-10-22 19:00:00 -- -- -- -- -- -- -- -- --
2019-10-22 18:00:00 -- -- -- -- -- -- -- -- --
2019-10-22 17:00:00 18.3 13 Sudoeste 28 Sudoeste 0 -- -- 63
2019-10-22 16:00:00 18 18 Sudoeste 31 Sudoeste 0 -- -- 60
2019-10-22 15:00:00 18.7 18 Sudoeste 30 Sudoeste 0 -- -- 57
2019-10-22 14:00:00 18 12 Sudoeste 21 Sudoeste 0 -- -- 57
2019-10-22 13:00:00 16.8 9 Sudoeste 16 Sudoeste 0 -- -- 60
2019-10-22 12:00:00 16.5 4 Sur 12 Sudoeste 0 -- -- 62
2019-10-22 11:00:00 12.8 5 Noroeste 10 Noroeste 0 -- -- 78
2019-10-22 10:00:00 8.6 2 Noroeste 10 Norte 0 -- -- 99
2019-10-22 09:00:00 6.5 5 Norte 10 Norte 0 -- -- 98
2019-10-22 08:00:00 6.7 3 Nordeste 6 Norte 0 -- -- 94
2019-10-22 07:00:00 7.7 4 Norte 7 Noroeste 0 -- -- 96
2019-10-22 06:00:00 8.4 3 Nordeste 9 Norte 0 -- -- 94
2019-10-22 05:00:00 9.4 6 Norte 11 Norte 0 -- -- 94
2019-10-22 04:00:00 10.5 7 Noroeste 14 Noroeste 0 -- -- 91
2019-10-22 03:00:00 11 8 Noroeste 14 Norte 0 -- -- 89
2019-10-22 02:00:00 11.5 8 Noroeste 15 Noroeste 0 -- -- 87
2019-10-22 01:00:00 11.9 8 Noroeste 16 Noroeste 0 -- -- 83
2019-10-22 00:00:00 12.4 9 Noroeste 16 Oeste 0 -- -- 81